createdAt,value
2023-02-18T00:00:31.351Z,97
2023-02-18T00:01:38.187Z,96
2023-02-18T00:02:45.074Z,98
2023-02-18T00:03:51.977Z,99
2023-02-18T00:04:58.790Z,101
2023-02-18T00:06:07.663Z,100
2023-02-18T00:07:18.271Z,99
2023-02-18T00:08:25.196Z,99
2023-02-18T00:09:32.107Z,97
2023-02-18T00:10:39.019Z,95
2023-02-18T00:11:46.679Z,88
2023-02-18T00:12:53.484Z,95
2023-02-18T00:14:00.366Z,97
2023-02-18T00:15:07.447Z,93
2023-02-18T00:16:14.349Z,94
2023-02-18T00:17:21.170Z,86
2023-02-18T00:18:27.980Z,89
2023-02-18T00:19:34.882Z,88
2023-02-18T00:20:41.927Z,84
2023-02-18T00:21:48.829Z,88
2023-02-18T00:22:55.664Z,73
2023-02-18T00:24:02.854Z,73
2023-02-18T00:25:09.778Z,79
2023-02-18T00:26:18.532Z,74
2023-02-18T00:27:26.086Z,70
2023-02-18T00:28:32.979Z,72
2023-02-18T00:29:39.822Z,67
2023-02-18T00:30:46.724Z,70
2023-02-18T00:31:53.621Z,67
2023-02-18T00:33:01.210Z,69
2023-02-18T00:34:08.110Z,62
2023-02-18T00:35:14.963Z,64
2023-02-18T00:36:21.787Z,65
2023-02-18T00:37:28.734Z,60
2023-02-18T00:38:35.662Z,62
2023-02-18T00:39:43.486Z,51
2023-02-18T00:40:50.362Z,57
2023-02-18T00:41:57.982Z,56
2023-02-18T00:43:05.021Z,63
2023-02-18T00:44:11.941Z,50
2023-02-18T00:45:18.911Z,55
2023-02-18T00:46:26.267Z,41
2023-02-18T00:47:33.171Z,51
2023-02-18T00:48:40.204Z,43
2023-02-18T00:49:47.884Z,43
2023-02-18T00:50:55.527Z,42
2023-02-18T00:52:02.470Z,48
2023-02-18T00:53:09.470Z,48
2023-02-18T00:54:16.395Z,37
2023-02-18T00:55:23.663Z,40
2023-02-18T00:56:32.074Z,41
2023-02-18T00:57:38.874Z,51
2023-02-18T00:58:45.866Z,56
2023-02-18T00:59:53.646Z,39
2023-02-18T01:01:00.523Z,30
2023-02-18T01:02:07.359Z,26
2023-02-18T01:03:15.095Z,25
2023-02-18T01:04:22.027Z,32
2023-02-18T01:05:28.854Z,37
2023-02-18T01:06:35.773Z,29
2023-02-18T01:07:44.532Z,25
2023-02-18T01:08:51.314Z,27
2023-02-18T01:09:58.211Z,26
2023-02-18T01:11:05.088Z,35
2023-02-18T01:12:12.923Z,32
2023-02-18T01:13:19.829Z,25
2023-02-18T01:14:26.783Z,32
2023-02-18T01:15:34.354Z,28
2023-02-18T01:16:41.258Z,26
2023-02-18T01:17:48.037Z,28
2023-02-18T01:18:54.909Z,35
2023-02-18T01:20:01.734Z,31
2023-02-18T01:21:09.674Z,27
2023-02-18T01:22:16.508Z,31
2023-02-18T01:23:23.431Z,28
2023-02-18T01:24:30.280Z,30
2023-02-18T01:25:38.164Z,28
2023-02-18T01:26:45.126Z,28
2023-02-18T01:27:53.508Z,29
2023-02-18T01:29:00.438Z,45
2023-02-18T01:30:08.213Z,34
2023-02-18T01:31:15.420Z,45
2023-02-18T01:32:22.982Z,42
2023-02-18T01:33:29.724Z,40
2023-02-18T01:34:37.404Z,41
2023-02-18T01:35:44.392Z,55
2023-02-18T01:36:51.319Z,54
2023-02-18T01:37:59.019Z,60
2023-02-18T01:39:06.705Z,54
2023-02-18T01:40:13.508Z,58
2023-02-18T01:41:20.528Z,63
2023-02-18T01:42:27.488Z,67
2023-02-18T01:43:37.182Z,66
2023-02-18T01:44:44.065Z,68
2023-02-18T01:45:50.941Z,67
2023-02-18T01:47:02.846Z,82
2023-02-18T01:48:09.734Z,75
2023-02-18T01:49:20.226Z,79
2023-02-18T01:50:32.134Z,90
2023-02-18T01:51:39.030Z,83
2023-02-18T01:52:47.906Z,84
2023-02-18T01:53:54.784Z,96
2023-02-18T01:55:07.578Z,83
2023-02-18T01:56:14.442Z,84
2023-02-18T01:57:25.949Z,89
2023-02-18T01:58:36.384Z,85
2023-02-18T01:59:43.301Z,81
2023-02-18T02:00:51.899Z,77
2023-02-18T02:01:59.615Z,78
2023-02-18T02:03:06.371Z,73
2023-02-18T02:04:13.183Z,78
2023-02-18T02:05:20.391Z,81
2023-02-18T02:06:27.268Z,79
2023-02-18T02:07:35.087Z,73
2023-02-18T02:08:42.032Z,88
2023-02-18T02:09:48.942Z,76
2023-02-18T02:10:55.868Z,75
2023-02-18T02:12:07.896Z,77
2023-02-18T02:13:20.752Z,80
2023-02-18T02:14:37.676Z,81
2023-02-18T02:15:54.689Z,78
2023-02-18T02:17:06.505Z,76
2023-02-18T02:18:21.269Z,75
2023-02-18T02:19:39.181Z,76
2023-02-18T02:20:57.777Z,76
2023-02-18T02:22:10.070Z,76
2023-02-18T02:23:27.875Z,62
2023-02-18T02:24:44.808Z,69
2023-02-18T02:25:56.720Z,72
2023-02-18T02:27:11.268Z,70
2023-02-18T02:28:18.137Z,68
2023-02-18T02:29:35.076Z,70
2023-02-18T02:30:42.882Z,61
2023-02-18T02:32:00.579Z,66
2023-02-18T02:33:15.608Z,63
2023-02-18T02:34:32.533Z,67
2023-02-18T02:35:49.604Z,69
2023-02-18T02:36:57.221Z,67
2023-02-18T02:38:09.310Z,74
2023-02-18T02:39:16.198Z,75
2023-02-18T02:40:23.076Z,70
2023-02-18T02:41:40.024Z,65
2023-02-18T02:42:46.813Z,77
2023-02-18T02:43:56.505Z,71
2023-02-18T02:45:08.428Z,58
2023-02-18T02:46:25.474Z,67
2023-02-18T02:47:34.970Z,66
2023-02-18T02:48:51.918Z,60
2023-02-18T02:50:09.019Z,64
2023-02-18T02:51:20.978Z,55
2023-02-18T02:52:32.865Z,52
2023-02-18T02:53:45.594Z,55
2023-02-18T02:54:52.534Z,48
2023-02-18T02:56:00.093Z,45
2023-02-18T02:57:06.980Z,37
2023-02-18T02:58:21.852Z,45
2023-02-18T02:59:29.665Z,44
2023-02-18T03:00:36.541Z,36
2023-02-18T03:01:51.233Z,37
2023-02-18T03:03:03.151Z,33
2023-02-18T03:04:15.793Z,35
2023-02-18T03:05:22.630Z,26
2023-02-18T03:06:32.142Z,27
2023-02-18T03:07:44.066Z,30
2023-02-18T03:08:59.012Z,27
2023-02-18T03:10:13.935Z,32
2023-02-18T03:11:20.850Z,30
2023-02-18T03:12:27.718Z,27
2023-02-18T03:13:42.689Z,28
2023-02-18T03:14:58.324Z,29
2023-02-18T03:16:15.337Z,25
2023-02-18T03:17:27.165Z,25
2023-02-18T03:18:34.039Z,28
2023-02-18T03:19:40.846Z,25
2023-02-18T03:20:52.715Z,25
2023-02-18T03:22:07.306Z,36
2023-02-18T03:23:17.488Z,33
2023-02-18T03:24:24.577Z,29
2023-02-18T03:25:34.038Z,26
2023-02-18T03:26:40.931Z,25
2023-02-18T03:27:48.658Z,27
2023-02-18T03:29:01.381Z,31
2023-02-18T03:30:09.915Z,31
2023-02-18T03:31:16.923Z,34
2023-02-18T03:32:23.695Z,25
2023-02-18T03:33:31.641Z,32
2023-02-18T03:34:44.531Z,25
2023-02-18T03:35:51.354Z,30
2023-02-18T03:36:58.298Z,34
2023-02-18T03:38:05.196Z,25
2023-02-18T03:39:17.195Z,30
2023-02-18T03:40:24.982Z,25
2023-02-18T03:41:35.655Z,27
2023-02-18T03:42:42.502Z,25
2023-02-18T03:43:50.254Z,30
2023-02-18T03:44:57.127Z,31
2023-02-18T03:46:04.064Z,29
2023-02-18T03:47:10.943Z,33
2023-02-18T03:48:18.813Z,25
2023-02-18T03:49:25.570Z,28
2023-02-18T03:50:33.215Z,25
2023-02-18T03:51:40.051Z,26
2023-02-18T03:52:46.934Z,27
2023-02-18T03:53:54.019Z,29
2023-02-18T03:55:03.100Z,31
2023-02-18T03:56:10.346Z,29
2023-02-18T03:57:17.004Z,32
2023-02-18T03:58:23.888Z,28
2023-02-18T03:59:30.635Z,26
2023-02-18T04:00:37.646Z,29
2023-02-18T04:01:44.789Z,25
2023-02-18T04:02:51.647Z,28
2023-02-18T04:03:58.636Z,37
2023-02-18T04:05:06.394Z,32
2023-02-18T04:06:14.081Z,32
2023-02-18T04:07:22.114Z,36
2023-02-18T04:08:29.102Z,25
2023-02-18T04:09:35.999Z,29
2023-02-18T04:10:43.028Z,42
2023-02-18T04:11:49.869Z,32
2023-02-18T04:12:56.735Z,33
2023-02-18T04:14:03.655Z,28
2023-02-18T04:15:10.553Z,25
2023-02-18T04:16:17.508Z,25
2023-02-18T04:17:25.886Z,26
2023-02-18T04:18:32.707Z,25
2023-02-18T04:19:39.631Z,25
2023-02-18T04:20:46.607Z,25
2023-02-18T04:21:55.111Z,33
2023-02-18T04:23:03.623Z,26
2023-02-18T04:24:10.796Z,25
2023-02-18T04:25:17.718Z,33
2023-02-18T04:26:25.524Z,30
2023-02-18T04:27:32.375Z,35
2023-02-18T04:28:39.396Z,32
2023-02-18T04:29:47.040Z,26
2023-02-18T04:30:54.333Z,35
2023-02-18T04:32:01.206Z,33
2023-02-18T04:33:09.235Z,31
2023-02-18T04:34:17.167Z,31
2023-02-18T04:35:26.968Z,25
2023-02-18T04:36:33.892Z,34
2023-02-18T04:37:40.796Z,27
2023-02-18T04:38:47.602Z,28
2023-02-18T04:39:54.504Z,32
2023-02-18T04:41:03.434Z,25
2023-02-18T04:42:10.244Z,26
2023-02-18T04:43:17.310Z,25
2023-02-18T04:44:24.237Z,32
2023-02-18T04:45:31.168Z,31
2023-02-18T04:46:38.272Z,31
2023-02-18T04:47:45.992Z,34
2023-02-18T04:48:52.852Z,26
2023-02-18T04:50:00.484Z,35
2023-02-18T04:51:08.319Z,34
2023-02-18T04:52:16.043Z,37
2023-02-18T04:53:24.059Z,30
2023-02-18T04:54:30.916Z,34
2023-02-18T04:55:37.805Z,34
2023-02-18T04:56:44.797Z,25
2023-02-18T04:57:51.629Z,36
2023-02-18T04:58:59.439Z,32
2023-02-18T05:00:07.131Z,28
2023-02-18T05:01:14.325Z,27
2023-02-18T05:02:21.985Z,28
2023-02-18T05:03:29.721Z,35
2023-02-18T05:04:37.402Z,30
2023-02-18T05:05:44.279Z,25
2023-02-18T05:06:51.962Z,31
2023-02-18T05:07:58.839Z,30
2023-02-18T05:09:06.468Z,25
2023-02-18T05:10:13.484Z,30
2023-02-18T05:11:20.455Z,30
2023-02-18T05:12:27.294Z,35
2023-02-18T05:13:34.098Z,31
2023-02-18T05:14:40.949Z,28
2023-02-18T05:15:48.729Z,31
2023-02-18T05:16:55.567Z,25
2023-02-18T05:18:02.453Z,25
2023-02-18T05:19:10.196Z,30
2023-02-18T05:20:20.208Z,29
2023-02-18T05:21:27.874Z,28
2023-02-18T05:22:34.738Z,34
2023-02-18T05:23:41.655Z,35
2023-02-18T05:24:49.706Z,26
2023-02-18T05:25:56.624Z,29
2023-02-18T05:27:03.448Z,28
2023-02-18T05:28:10.319Z,27
2023-02-18T05:29:17.954Z,31
2023-02-18T05:30:24.918Z,25
2023-02-18T05:31:31.871Z,32
2023-02-18T05:32:40.389Z,34
2023-02-18T05:33:47.267Z,28
2023-02-18T05:34:55.788Z,34
2023-02-18T05:36:02.744Z,25
2023-02-18T05:37:09.732Z,32
2023-02-18T05:38:18.182Z,31
2023-02-18T05:39:25.003Z,33
2023-02-18T05:40:32.080Z,36
2023-02-18T05:41:39.070Z,32
2023-02-18T05:42:45.859Z,34
2023-02-18T05:43:52.743Z,29
2023-02-18T05:45:06.282Z,25
2023-02-18T05:46:13.319Z,27
2023-02-18T05:47:21.229Z,35
2023-02-18T05:48:28.014Z,27
2023-02-18T05:49:34.886Z,31
2023-02-18T05:50:41.749Z,27
2023-02-18T05:51:48.592Z,25
2023-02-18T05:52:55.492Z,25
2023-02-18T05:54:02.298Z,25
2023-02-18T05:55:10.178Z,31
2023-02-18T05:56:17.106Z,27
2023-02-18T05:57:23.897Z,28
2023-02-18T05:58:30.738Z,33
2023-02-18T05:59:37.550Z,30
2023-02-18T06:00:44.549Z,28
2023-02-18T06:01:52.222Z,25
2023-02-18T06:02:59.233Z,35
2023-02-18T06:04:06.086Z,29
2023-02-18T06:05:12.981Z,27
2023-02-18T06:06:20.913Z,31
2023-02-18T06:07:28.164Z,33
2023-02-18T06:08:35.164Z,28
2023-02-18T06:09:43.054Z,30
2023-02-18T06:10:50.075Z,28
2023-02-18T06:11:57.088Z,29
2023-02-18T06:13:03.999Z,33
2023-02-18T06:14:11.680Z,25
2023-02-18T06:15:19.327Z,36
2023-02-18T06:16:26.305Z,25
2023-02-18T06:17:35.222Z,25
2023-02-18T06:18:42.933Z,31
2023-02-18T06:19:52.421Z,40
2023-02-18T06:21:00.037Z,25
2023-02-18T06:22:07.033Z,31
2023-02-18T06:23:13.834Z,25
2023-02-18T06:24:21.498Z,26
2023-02-18T06:25:29.128Z,25
2023-02-18T06:26:35.945Z,28
2023-02-18T06:27:42.805Z,27
2023-02-18T06:28:49.658Z,33
2023-02-18T06:29:57.645Z,26
2023-02-18T06:31:05.849Z,29
2023-02-18T06:32:12.731Z,25
2023-02-18T06:33:19.810Z,26
2023-02-18T06:34:26.695Z,29
2023-02-18T06:35:33.718Z,25
2023-02-18T06:36:40.673Z,31
2023-02-18T06:37:48.424Z,25
2023-02-18T06:38:55.349Z,25
2023-02-18T06:40:02.340Z,31
2023-02-18T06:41:09.452Z,31
2023-02-18T06:42:17.129Z,33
2023-02-18T06:43:25.365Z,28
2023-02-18T06:44:32.251Z,34
2023-02-18T06:45:40.800Z,34
2023-02-18T06:46:49.601Z,33
2023-02-18T06:47:58.372Z,30
2023-02-18T06:49:05.252Z,30
2023-02-18T06:50:14.203Z,25
2023-02-18T06:51:21.082Z,31
2023-02-18T06:52:28.771Z,27
2023-02-18T06:53:35.631Z,25
2023-02-18T06:54:44.158Z,34
2023-02-18T06:55:51.871Z,32
2023-02-18T06:56:58.830Z,28
2023-02-18T06:58:05.749Z,31
2023-02-18T06:59:12.610Z,28
2023-02-18T07:00:20.208Z,37
2023-02-18T07:01:28.549Z,29
2023-02-18T07:02:35.418Z,31
2023-02-18T07:03:42.328Z,31
2023-02-18T07:04:52.002Z,33
2023-02-18T07:05:58.978Z,28
2023-02-18T07:07:06.455Z,34
2023-02-18T07:08:14.722Z,27
2023-02-18T07:11:49.743Z,35
2023-02-18T07:12:56.907Z,34
2023-02-18T07:15:55.551Z,38
2023-02-18T07:17:03.701Z,29
2023-02-18T07:18:11.726Z,32
2023-02-18T07:19:18.789Z,32
2023-02-18T07:20:51.502Z,27
2023-02-18T07:23:21.377Z,29
2023-02-18T07:25:59.242Z,30
2023-02-18T07:30:22.307Z,28
2023-02-18T07:31:29.601Z,25
2023-02-18T07:32:36.824Z,27
2023-02-18T07:33:46.918Z,31
2023-02-18T07:35:52.398Z,31
2023-02-18T07:37:00.203Z,32
2023-02-18T07:38:11.726Z,36
2023-02-18T07:39:18.674Z,28
2023-02-18T07:40:27.202Z,35
2023-02-18T07:41:38.100Z,36
2023-02-18T07:42:46.715Z,33
2023-02-18T07:43:54.754Z,28
2023-02-18T07:45:01.960Z,45
2023-02-18T07:46:12.287Z,38
2023-02-18T07:47:19.271Z,38
2023-02-18T07:48:27.318Z,38
2023-02-18T07:49:34.315Z,38
2023-02-18T07:50:42.064Z,34
2023-02-18T07:51:49.551Z,39
2023-02-18T07:52:58.894Z,41
2023-02-18T07:54:06.001Z,39
2023-02-18T07:55:14.106Z,36
2023-02-18T07:56:36.585Z,43
2023-02-18T07:57:44.867Z,29
2023-02-18T07:58:59.610Z,39
2023-02-18T08:00:10.138Z,44
2023-02-18T08:01:20.122Z,32
2023-02-18T08:02:28.571Z,37
2023-02-18T08:03:38.224Z,40
2023-02-18T08:04:45.445Z,41
2023-02-18T08:05:56.719Z,35
2023-02-18T08:07:03.955Z,40
2023-02-18T08:08:14.404Z,31
2023-02-18T08:09:22.242Z,35
2023-02-18T08:10:29.315Z,29
2023-02-18T08:11:48.653Z,30
2023-02-18T08:13:00.128Z,33
2023-02-18T08:14:08.195Z,29
2023-02-18T08:15:16.084Z,31
2023-02-18T08:16:26.000Z,32
2023-02-18T08:17:33.512Z,27
2023-02-18T08:18:40.787Z,25
2023-02-18T08:19:49.566Z,25
2023-02-18T08:20:56.598Z,25
2023-02-18T08:22:03.847Z,30
2023-02-18T08:23:11.663Z,33
2023-02-18T08:24:18.829Z,29
2023-02-18T08:25:31.498Z,30
2023-02-18T08:26:54.444Z,33
2023-02-18T08:27:50.546Z,33
2023-02-18T08:28:58.352Z,31
2023-02-18T08:30:08.273Z,38
2023-02-18T08:31:17.599Z,33
2023-02-18T08:32:30.694Z,31
2023-02-18T08:33:39.225Z,34
2023-02-18T08:34:47.098Z,36
2023-02-18T08:35:55.384Z,31
2023-02-18T08:37:02.297Z,33
2023-02-18T08:38:11.737Z,31
2023-02-18T08:39:29.902Z,35
2023-02-18T08:40:39.787Z,27
2023-02-18T08:41:49.408Z,33
2023-02-18T08:42:58.124Z,34
2023-02-18T08:44:06.805Z,34
2023-02-18T08:45:14.906Z,36
2023-02-18T08:46:24.820Z,38
2023-02-18T08:48:13.246Z,37
2023-02-18T08:48:43.114Z,36
2023-02-18T08:49:50.174Z,36
2023-02-18T08:51:00.195Z,33
2023-02-18T08:52:16.046Z,32
2023-02-18T08:53:23.248Z,29
2023-02-18T08:54:30.532Z,30
2023-02-18T08:55:39.265Z,25
2023-02-18T08:56:47.173Z,31
2023-02-18T08:57:55.307Z,37
2023-02-18T08:59:02.447Z,27
2023-02-18T09:00:10.666Z,33
2023-02-18T09:01:18.369Z,35
2023-02-18T09:02:26.117Z,37
2023-02-18T09:03:33.820Z,26
2023-02-18T09:04:42.029Z,26
2023-02-18T09:05:56.825Z,33
2023-02-18T09:07:08.149Z,29
2023-02-18T09:08:15.542Z,31
2023-02-18T09:09:22.812Z,33
2023-02-18T09:10:30.068Z,25
2023-02-18T09:11:37.508Z,27
2023-02-18T09:12:47.444Z,25
2023-02-18T09:13:54.891Z,32
2023-02-18T09:15:05.305Z,38
2023-02-18T09:16:15.136Z,29
2023-02-18T09:17:23.837Z,37
2023-02-18T09:18:31.614Z,34
2023-02-18T09:19:42.306Z,25
2023-02-18T09:20:49.477Z,27
2023-02-18T09:21:59.153Z,31
2023-02-18T09:23:04.531Z,37
2023-02-18T09:24:12.502Z,39
2023-02-18T09:25:21.508Z,25
2023-02-18T09:26:31.449Z,31
2023-02-18T09:27:39.488Z,33
2023-02-18T09:28:46.749Z,26
2023-02-18T09:29:53.747Z,31
2023-02-18T09:31:02.119Z,26
2023-02-18T09:32:28.962Z,25
2023-02-18T09:33:26.281Z,32
2023-02-18T09:34:33.626Z,34
2023-02-18T09:35:40.763Z,36
2023-02-18T09:36:48.752Z,28
2023-02-18T09:37:58.649Z,25
2023-02-18T09:39:06.942Z,25
2023-02-18T09:40:16.669Z,25
2023-02-18T09:41:30.159Z,31
2023-02-18T09:42:45.375Z,30
2023-02-18T09:43:55.985Z,27
2023-02-18T09:45:03.848Z,32
2023-02-18T09:46:11.120Z,33
2023-02-18T09:47:32.840Z,30
2023-02-18T09:48:40.757Z,45
2023-02-18T09:49:50.474Z,34
2023-02-18T09:51:02.853Z,35
2023-02-18T09:52:49.569Z,33
2023-02-18T09:53:58.944Z,31
2023-02-18T09:55:07.053Z,28
2023-02-18T09:56:19.425Z,27
2023-02-18T09:57:27.746Z,34
2023-02-18T09:58:40.850Z,27
2023-02-18T10:00:01.133Z,28
2023-02-18T10:01:09.912Z,31
2023-02-18T10:02:30.807Z,25
2023-02-18T10:03:41.049Z,27
2023-02-18T10:04:51.109Z,25
2023-02-18T10:05:58.954Z,25
2023-02-18T10:07:14.029Z,25
2023-02-18T10:08:38.382Z,28
2023-02-18T10:09:51.732Z,31
2023-02-18T10:11:02.228Z,33
2023-02-18T10:12:12.697Z,25
2023-02-18T10:13:21.061Z,36
2023-02-18T10:14:31.892Z,32
2023-02-18T10:15:39.682Z,31
2023-02-18T10:16:49.209Z,35
2023-02-18T10:18:08.153Z,36
2023-02-18T10:19:20.763Z,37
2023-02-18T10:20:28.642Z,37
2023-02-18T10:21:37.655Z,43
2023-02-18T10:22:45.554Z,43
2023-02-18T10:23:53.910Z,44
2023-02-18T10:25:06.884Z,43
2023-02-18T10:26:14.087Z,49
2023-02-18T10:27:22.736Z,51
2023-02-18T10:28:35.100Z,52
2023-02-18T10:29:42.248Z,66
2023-02-18T10:30:50.276Z,72
2023-02-18T10:32:02.556Z,72
2023-02-18T10:33:23.433Z,91
2023-02-18T10:34:33.456Z,78
2023-02-18T10:35:45.980Z,75
2023-02-18T10:37:00.310Z,88
2023-02-18T10:38:15.836Z,95
2023-02-18T10:39:30.690Z,98
2023-02-18T10:40:46.337Z,108
2023-02-18T10:42:06.045Z,105
2023-02-18T10:43:21.845Z,108
2023-02-18T10:44:38.036Z,113
2023-02-18T10:45:55.155Z,120
2023-02-18T10:47:11.801Z,124
2023-02-18T10:48:28.304Z,125
2023-02-18T10:49:35.690Z,135
2023-02-18T10:50:53.803Z,138
2023-02-18T10:52:01.384Z,132
2023-02-18T10:53:08.484Z,135
2023-02-18T10:54:20.639Z,144
2023-02-18T10:55:28.848Z,142
2023-02-18T10:56:39.986Z,140
2023-02-18T10:57:52.134Z,155
2023-02-18T10:59:12.096Z,155
2023-02-18T11:00:25.945Z,154
2023-02-18T11:01:36.006Z,160
2023-02-18T11:02:45.887Z,161
2023-02-18T11:04:25.722Z,158
2023-02-18T11:05:41.309Z,161
2023-02-18T11:06:49.596Z,165
2023-02-18T11:07:57.090Z,161
2023-02-18T11:09:05.457Z,165
2023-02-18T11:10:19.387Z,177
2023-02-18T11:11:23.800Z,177
2023-02-18T11:12:33.617Z,177
2023-02-18T11:13:47.072Z,170
2023-02-18T11:15:00.129Z,176
2023-02-18T11:16:21.770Z,176
2023-02-18T11:17:30.795Z,179
2023-02-18T11:18:39.391Z,175
2023-02-18T11:19:48.254Z,171
2023-02-18T11:21:03.600Z,168
2023-02-18T11:22:11.424Z,175
2023-02-18T11:23:30.417Z,180
2023-02-18T11:24:37.876Z,168
2023-02-18T11:25:46.535Z,171
2023-02-18T11:27:02.103Z,175
2023-02-18T11:28:13.411Z,168
2023-02-18T11:29:21.492Z,170
2023-02-18T11:30:33.984Z,164
2023-02-18T11:31:46.591Z,175
2023-02-18T11:32:57.636Z,166
2023-02-18T11:34:13.876Z,169
2023-02-18T11:35:22.408Z,168
2023-02-18T11:36:30.006Z,167
2023-02-18T11:37:39.291Z,167
2023-02-18T11:38:50.293Z,161
2023-02-18T11:40:21.352Z,152
2023-02-18T11:41:30.179Z,155
2023-02-18T11:42:43.521Z,160
2023-02-18T11:44:02.179Z,166
2023-02-18T11:45:15.673Z,158
2023-02-18T11:46:36.601Z,154
2023-02-18T11:47:43.968Z,154
2023-02-18T11:48:55.529Z,148
2023-02-18T11:50:11.143Z,146
2023-02-18T11:51:19.760Z,149
2023-02-18T11:52:31.004Z,146
2023-02-18T11:53:43.544Z,143
2023-02-18T11:55:04.169Z,138
2023-02-18T11:56:24.494Z,135
2023-02-18T11:57:41.438Z,135
2023-02-18T11:58:55.151Z,130
2023-02-18T12:00:03.542Z,131
2023-02-18T12:03:11.731Z,119
2023-02-18T12:04:41.245Z,122
2023-02-18T12:06:10.689Z,115
2023-02-18T12:09:35.591Z,123
2023-02-18T12:14:36.898Z,107
2023-02-18T12:20:35.815Z,110
2023-02-18T12:22:58.698Z,112
2023-02-18T12:31:53.092Z,128
2023-02-18T12:36:07.152Z,126
2023-02-18T12:39:22.106Z,114
2023-02-18T12:45:55.507Z,122
2023-02-18T12:48:18.861Z,121
2023-02-18T12:59:33.508Z,114
2023-02-18T13:02:21.230Z,112
2023-02-18T13:07:53.284Z,113
2023-02-18T13:17:08.182Z,112
2023-02-18T13:21:37.979Z,117
2023-02-18T13:29:55.604Z,115
2023-02-18T13:31:41.017Z,120
2023-02-18T13:34:25.389Z,125
2023-02-18T13:36:46.199Z,130
2023-02-18T13:38:10.796Z,135
2023-02-18T13:39:28.536Z,138
2023-02-18T13:40:40.332Z,143
2023-02-18T13:42:47.640Z,151
2023-02-18T13:56:38.642Z,160
2023-02-18T13:57:55.338Z,162
2023-02-18T13:59:15.197Z,158
2023-02-18T14:00:43.382Z,163
2023-02-18T14:01:58.192Z,159
2023-02-18T14:03:23.640Z,160
2023-02-18T14:05:19.618Z,165
2023-02-18T14:06:53.435Z,174
2023-02-18T14:08:26.860Z,174
2023-02-18T14:09:44.648Z,163
2023-02-18T14:11:54.450Z,177
2023-02-18T14:13:24.163Z,181
2023-02-18T14:15:37.834Z,187
2023-02-18T14:17:03.183Z,189
2023-02-18T14:19:09.870Z,183
2023-02-18T14:20:34.364Z,179
2023-02-18T14:21:59.699Z,179
2023-02-18T14:23:48.523Z,179
2023-02-18T14:26:09.255Z,177
2023-02-18T14:30:38.349Z,183
2023-02-18T14:33:43.729Z,172
2023-02-18T14:39:01.660Z,171
2023-02-18T14:42:38.320Z,169
2023-02-18T14:46:59.968Z,157
2023-02-18T14:48:14.431Z,160
2023-02-18T14:51:58.847Z,162
2023-02-18T15:01:17.070Z,143
2023-02-18T15:04:23.665Z,144
2023-02-18T15:13:47.393Z,133
2023-02-18T15:15:35.998Z,124
2023-02-18T15:19:13.400Z,129
2023-02-18T15:28:29.353Z,122
2023-02-18T15:37:59.945Z,116
2023-02-18T15:39:56.820Z,122
2023-02-18T15:42:29.694Z,115
2023-02-18T15:50:30.578Z,113
2023-02-18T15:53:10.827Z,118
2023-02-18T15:58:10.757Z,111
2023-02-18T16:06:02.228Z,102
2023-02-18T16:08:41.119Z,95
2023-02-18T16:11:46.007Z,103
2023-02-18T16:15:20.795Z,101
2023-02-18T16:16:48.383Z,97
2023-02-18T16:17:58.319Z,98
2023-02-18T16:23:17.975Z,97
2023-02-18T16:24:26.009Z,100
2023-02-18T16:29:32.327Z,92
2023-02-18T16:33:32.662Z,70
2023-02-18T16:38:35.341Z,53
2023-02-18T16:43:15.516Z,32
2023-02-18T16:48:43.050Z,25
2023-02-18T16:57:48.414Z,32
2023-02-18T17:00:25.623Z,31
2023-02-18T17:02:10.836Z,40
2023-02-18T17:04:14.587Z,34
2023-02-18T17:07:33.593Z,29
2023-02-18T17:09:29.994Z,33
2023-02-18T17:12:25.679Z,33
2023-02-18T17:14:13.450Z,38
2023-02-18T17:18:33.301Z,33
2023-02-18T17:21:14.075Z,27
2023-02-18T17:23:36.347Z,29
2023-02-18T17:25:48.869Z,25
2023-02-18T17:30:53.950Z,30
2023-02-18T17:35:03.356Z,33
2023-02-18T17:37:33.342Z,30
2023-02-18T17:46:02.283Z,29
2023-02-18T17:49:12.117Z,25
2023-02-18T17:51:09.663Z,27
2023-02-18T17:57:29.001Z,30
2023-02-18T18:00:45.658Z,37
2023-02-18T18:06:17.414Z,29
2023-02-18T18:13:28.366Z,29
2023-02-18T18:14:44.276Z,25
2023-02-18T18:17:13.815Z,26
2023-02-18T18:18:57.313Z,27
2023-02-18T18:20:17.022Z,25
2023-02-18T18:21:28.716Z,34
2023-02-18T18:22:57.307Z,29
2023-02-18T18:24:04.634Z,28
2023-02-18T18:25:13.363Z,25
2023-02-18T18:27:10.524Z,32
2023-02-18T18:28:20.344Z,30
2023-02-18T18:29:36.857Z,25
2023-02-18T18:30:54.705Z,32
2023-02-18T18:32:05.090Z,36
2023-02-18T18:33:13.045Z,34
2023-02-18T18:35:56.554Z,32
2023-02-18T18:37:52.014Z,33
2023-02-18T18:40:03.897Z,25
2023-02-18T18:41:11.886Z,36
2023-02-18T18:43:03.408Z,32
2023-02-18T18:44:11.278Z,31
2023-02-18T18:47:39.566Z,26
2023-02-18T18:53:21.185Z,37
2023-02-18T18:56:06.943Z,33
2023-02-18T18:59:41.792Z,27
2023-02-18T19:00:58.343Z,30
2023-02-18T19:02:22.411Z,28
2023-02-18T19:05:21.893Z,32
2023-02-18T19:06:35.300Z,33
2023-02-18T19:08:11.902Z,32
2023-02-18T19:09:19.959Z,29
2023-02-18T19:10:31.402Z,27
2023-02-18T19:12:13.537Z,34
2023-02-18T19:14:39.657Z,40
2023-02-18T19:18:10.354Z,38
2023-02-18T19:28:18.900Z,30
2023-02-18T19:34:04.592Z,25
2023-02-18T19:45:07.950Z,34
2023-02-18T19:47:08.144Z,28
2023-02-18T19:50:53.220Z,29
2023-02-18T19:52:53.783Z,28
2023-02-18T20:02:42.156Z,31
2023-02-18T20:04:20.173Z,32
2023-02-18T20:19:49.881Z,30
2023-02-18T20:24:55.895Z,33
2023-02-18T20:32:46.386Z,25
2023-02-18T20:39:59.628Z,34
2023-02-18T20:42:14.626Z,36
2023-02-18T20:44:42.044Z,25
2023-02-18T20:47:11.108Z,29
2023-02-18T20:50:57.668Z,33
2023-02-18T20:53:04.184Z,31
2023-02-18T20:55:49.966Z,28
2023-02-18T20:56:57.740Z,29
2023-02-18T20:58:06.221Z,27
2023-02-18T20:59:56.235Z,25
2023-02-18T21:02:42.128Z,31
2023-02-18T21:03:53.993Z,28
2023-02-18T21:05:06.300Z,30
2023-02-18T21:06:16.736Z,27
2023-02-18T21:07:53.471Z,30
2023-02-18T21:09:39.178Z,41
2023-02-18T21:11:09.743Z,32
2023-02-18T21:14:49.840Z,34
2023-02-18T21:15:57.508Z,30
2023-02-18T21:17:33.998Z,36
2023-02-18T21:18:41.864Z,34
2023-02-18T21:21:16.624Z,33
2023-02-18T21:26:09.996Z,32
2023-02-18T21:27:38.638Z,32
2023-02-18T21:30:25.529Z,31
2023-02-18T21:34:04.599Z,26
2023-02-18T21:38:23.719Z,40
2023-02-18T21:40:19.727Z,34
2023-02-18T21:43:04.442Z,27
2023-02-18T21:46:05.855Z,38
2023-02-18T21:47:22.610Z,42
2023-02-18T21:50:51.478Z,30
2023-02-18T21:53:11.099Z,36
2023-02-18T21:55:31.376Z,34
2023-02-18T22:05:43.409Z,44
2023-02-18T22:14:35.932Z,61
2023-02-18T22:16:13.318Z,65
2023-02-18T22:20:33.972Z,63
2023-02-18T22:22:13.373Z,68
2023-02-18T22:23:51.537Z,70
2023-02-18T22:28:18.439Z,63
2023-02-18T22:32:41.178Z,72
2023-02-18T22:35:18.229Z,76
2023-02-18T22:36:29.115Z,77
2023-02-18T22:37:41.600Z,96
2023-02-18T22:42:50.255Z,117
2023-02-18T22:44:02.029Z,132
2023-02-18T22:49:12.376Z,150
2023-02-18T22:50:24.821Z,150
2023-02-18T22:52:03.166Z,140
2023-02-18T22:55:30.478Z,154
2023-02-18T23:00:40.617Z,159
2023-02-18T23:05:26.867Z,156
2023-02-18T23:08:44.780Z,159
2023-02-18T23:11:12.914Z,156
2023-02-18T23:15:44.142Z,159
2023-02-18T23:20:14.866Z,149
2023-02-18T23:25:44.251Z,136
2023-02-18T23:29:56.950Z,133
2023-02-18T23:34:42.207Z,122
2023-02-18T23:35:49.343Z,117
2023-02-18T23:38:52.725Z,108
2023-02-18T23:42:08.496Z,120
2023-02-18T23:44:55.525Z,109
2023-02-18T23:46:26.287Z,119
2023-02-18T23:50:12.739Z,111
2023-02-18T23:52:02.729Z,108
2023-02-18T23:54:43.535Z,112
2023-02-18T23:59:18.706Z,106
